Capitol Logistics 7386

Operating for MZN



KPDX
Portland International Airport
Portland, Oregon
KRIV
March Air Reserve Base
Riverside, California

Activity Log

Date Flight Route Aircraft Duration
02/01/2020 CPX453 CASCD2 JOGEN Q7 AVE J6 PMD MARCH4 B738 2h 10m
01/05/2020 CPX453 N0452F410 CASCD2 DSD FRA LANDO J6 PMD MARCH4 B738 2h 18m
09/13/2019 CPX453 CASCD2 PAWLI Q11 PUSHH PMD MARCH4 B738 2h 12m
08/31/2019 CPX453 CASCD2 JOGEN Q7 AVE J6 PMD MARCH4 B738 2h 10m

Route Details

Aircraft Information
Primary: Boeing 737-800BCF
Backup: Boeing 757-200SF
Route Data
Distance: 745nm
Duration: 2h 02m
Recm'd Route: BTG J67 LKV J5 EHF PMD MARCH4
Origin Wx: KPDX 020553Z 33007KT 10SM FEW250 21/14 A3008 RMK AO2 SLP184 T02060144 10317 20206 53018
Dest. Wx: KRIV 020558Z AUTO 25004KT 10SM CLR 25/05 A3007 RMK AO2 SLP166 T02510053 10351 20237 51011
Notes: